Portada
METAR-TAF:

METAR-TAF

Aeroports :

Liberia, Costa Rica

latitud: 10-37N, longitud: 085-26W, altitud: 80 m

Observació

L'informe es va fer fa 57 minuts, a les 18:00 UTC
Vent 7 kt del Oest
Temperatura 30°C
Humitat 62%
Pressió 1009 hPa
Visibilitat 10 km o més
Escasses núvols a una alçada de 4000 ft
Cel ennuvolat a una alçada de 20000 ft

METAR: MRLB 181800Z 28007KT 9999 FEW040 BKN200 30/22 A2980 NOSIG

Hora: 12:57 (18:57 UTC)

Pronòstic

L'informe es va fer fa 1 hora i 57 minuts, a les 17:00 UTC
Pronòstic vàlid del 18 a les 18 UTC al 19 a les 18 UTC
Vent 12 kt del Est
Visibilitat 10 km o més
Escasses núvols a una alçada de 4500 ft
Temporalment
l' 19 a les 09 UTC al 19 a les 15 UTC
Vent 4 kt del Sud-Oest

TAF: MRLB 181700Z 1818/1918 08012KT 9999 FEW045 TX32/1819Z TN21/1911Z TEMPO 1909/1915 23004KT

Observacions i pronòstics meteorològics de més de 4000 aeroports (METAR i TAF).

Les estacions disponibles són els punts grocs i vermells al mapa.

Posi el ratolí al punt desitjat per veure el nom de l'estació.

Feu clic per veure les observacions i els pronòstics meteorològics.

Per canviar el mapa: feu clic els botons verds amb una creu de color negre per apropar; al botó verd amb un guió per allunyar la imatge; o en les fletxes verdes per a mapes adjacents.


METAR-TAF: